Time;durP1;ratioP1;P1;durP2;ratioP2;P2;SDS_P1;SDS_P2;PMS_P1;PMS_P2;Temp;Humidity;BMP_temperature;BMP_pressure;BME280_temperature;BME280_humidity;BME280_pressure;Samples;Min_cycle;Max_cycle;Signal;HPM_P1;HPM_P2
2021/01/06 00:01:13;;;;;;;12.35;5.50;;;4.30;99.90;;;;;;5037917;28;20068;-66
2021/01/06 00:03:40;;;;;;;14.95;6.75;;;4.30;99.90;;;;;;5034824;28;20406;-64
2021/01/06 00:06:12;;;;;;;16.15;6.22;;;4.30;99.90;;;;;;5036608;28;20116;-65
2021/01/06 00:08:41;;;;;;;13.02;5.65;;;4.30;99.90;;;;;;5041493;28;20119;-64
2021/01/06 00:11:06;;;;;;;13.15;5.88;;;4.30;99.90;;;;;;5037324;28;20039;-66
2021/01/06 00:13:32;;;;;;;12.05;5.80;;;4.30;99.90;;;;;;5037375;28;20025;-66
2021/01/06 00:15:58;;;;;;;14.02;5.70;;;4.30;99.90;;;;;;5036016;28;20667;-64
2021/01/06 00:18:26;;;;;;;14.70;6.05;;;4.20;99.90;;;;;;5039563;28;20040;-64
2021/01/06 00:20:52;;;;;;;11.13;5.38;;;4.30;99.90;;;;;;5041319;28;20469;-66
2021/01/06 00:23:18;;;;;;;13.35;5.18;;;4.30;99.90;;;;;;5038449;28;20103;-65
2021/01/06 00:25:44;;;;;;;10.80;5.20;;;4.20;99.90;;;;;;5043785;28;20025;-65
2021/01/06 00:28:12;;;;;;;12.32;5.50;;;4.20;99.90;;;;;;5037557;28;20121;-64
2021/01/06 00:30:41;;;;;;;10.73;4.88;;;4.30;99.90;;;;;;5034959;28;20033;-65
2021/01/06 00:33:10;;;;;;;11.45;5.30;;;4.20;99.90;;;;;;5039980;28;20398;-67
2021/01/06 00:35:35;;;;;;;14.13;5.43;;;4.20;99.90;;;;;;5041594;28;20116;-65
2021/01/06 00:38:02;;;;;;;9.80;5.03;;;4.20;99.90;;;;;;5041038;28;20454;-65
2021/01/06 00:40:30;;;;;;;11.30;5.30;;;4.20;99.90;;;;;;5039437;28;20053;-66
2021/01/06 00:43:00;;;;;;;11.38;5.35;;;4.20;99.90;;;;;;5043305;28;20501;-65
2021/01/06 00:45:26;;;;;;;10.95;5.43;;;4.20;99.90;;;;;;5038379;28;20031;-67
2021/01/06 00:47:52;;;;;;;12.52;4.85;;;4.20;99.90;;;;;;5040912;28;20033;-66
2021/01/06 00:50:25;;;;;;;11.20;4.85;;;4.20;99.90;;;;;;5040169;28;20108;-67
2021/01/06 00:52:51;;;;;;;11.20;5.78;;;4.30;99.90;;;;;;5043021;28;20111;-64
2021/01/06 00:55:16;;;;;;;13.02;6.05;;;4.20;99.90;;;;;;5039142;28;20124;-64
2021/01/06 00:57:42;;;;;;;13.18;5.85;;;4.20;99.90;;;;;;5033384;28;20034;-64
2021/01/06 01:00:17;;;;;;;12.52;5.30;;;4.20;99.90;;;;;;5043142;28;20159;-64
2021/01/06 01:02:49;;;;;;;10.48;5.10;;;4.20;99.90;;;;;;5033779;28;20033;-66
2021/01/06 01:05:15;;;;;;;9.00;4.55;;;4.20;99.90;;;;;;5040371;28;20110;-63
2021/01/06 01:07:40;;;;;;;9.80;4.53;;;4.20;99.90;;;;;;5052203;28;20034;-65
2021/01/06 01:10:06;;;;;;;11.52;4.60;;;4.20;99.90;;;;;;5040837;28;20497;-66
2021/01/06 01:12:32;;;;;;;9.70;4.53;;;4.20;99.90;;;;;;5037041;28;20450;-65
2021/01/06 01:14:58;;;;;;;13.98;5.50;;;4.20;99.90;;;;;;5037221;28;20025;-64
2021/01/06 01:17:23;;;;;;;13.88;4.35;;;4.10;99.90;;;;;;5038812;28;20041;-65
2021/01/06 01:19:49;;;;;;;13.95;4.25;;;4.20;99.90;;;;;;5039377;28;20044;-64
2021/01/06 01:22:14;;;;;;;9.60;4.03;;;4.20;99.90;;;;;;5038148;28;20034;-65
2021/01/06 01:24:40;;;;;;;10.70;4.65;;;4.10;99.90;;;;;;5039739;28;20406;-64
2021/01/06 01:27:05;;;;;;;10.85;4.80;;;4.10;99.90;;;;;;5040879;28;20025;-64
2021/01/06 01:29:31;;;;;;;7.60;3.88;;;4.10;99.90;;;;;;5037410;28;20519;-64
2021/01/06 01:31:56;;;;;;;10.48;4.60;;;4.10;99.90;;;;;;5039283;28;20490;-65
2021/01/06 01:34:22;;;;;;;9.85;4.72;;;4.10;99.90;;;;;;5038714;28;20029;-66
2021/01/06 01:36:51;;;;;;;8.13;3.72;;;4.10;99.90;;;;;;5037746;28;20029;-64
2021/01/06 01:39:18;;;;;;;9.00;3.75;;;4.10;99.90;;;;;;5039650;28;20036;-65
2021/01/06 01:41:44;;;;;;;8.52;3.90;;;4.10;99.90;;;;;;5037332;28;20041;-64
2021/01/06 01:44:14;;;;;;;8.82;4.07;;;4.10;99.90;;;;;;5040833;28;20029;-65
2021/01/06 01:47:14;;;;;;;5.75;2.97;;;4.10;99.90;;;;;;5037446;28;20054;-65
2021/01/06 01:49:47;;;;;;;8.05;3.80;;;4.20;99.90;;;;;;5038075;28;20040;-64
2021/01/06 01:52:43;;;;;;;6.43;3.13;;;4.10;99.90;;;;;;5040416;28;20494;-65
2021/01/06 01:55:11;;;;;;;7.45;3.75;;;4.10;99.90;;;;;;5038165;28;20548;-65
2021/01/06 01:57:46;;;;;;;7.72;3.22;;;4.00;99.90;;;;;;5044441;28;20041;-64
2021/01/06 02:00:18;;;;;;;6.80;3.38;;;4.00;99.90;;;;;;5038099;28;20098;-64
2021/01/06 02:03:02;;;;;;;9.85;3.47;;;4.00;99.90;;;;;;5042181;28;20038;-66
2021/01/06 02:05:41;;;;;;;8.35;3.20;;;4.00;99.90;;;;;;5041048;28;20036;-66
2021/01/06 02:08:26;;;;;;;6.60;3.53;;;4.00;99.90;;;;;;5037302;28;20068;-65
2021/01/06 02:10:58;;;;;;;7.68;3.60;;;3.90;99.90;;;;;;5039453;28;20036;-64
2021/01/06 02:13:34;;;;;;;7.18;3.47;;;4.00;99.90;;;;;;5043005;28;20108;-64
2021/01/06 02:16:12;;;;;;;8.15;3.90;;;3.90;99.90;;;;;;5040808;28;20032;-64
2021/01/06 02:18:38;;;;;;;5.55;3.20;;;3.90;99.90;;;;;;5036687;28;20413;-66
2021/01/06 02:21:08;;;;;;;7.72;3.40;;;3.90;99.90;;;;;;5043906;28;20040;-66
2021/01/06 02:23:35;;;;;;;5.10;2.87;;;3.90;99.90;;;;;;5036611;28;20029;-64
2021/01/06 02:26:00;;;;;;;7.22;3.53;;;3.80;99.90;;;;;;5039878;28;20021;-65
2021/01/06 02:28:27;;;;;;;6.55;3.03;;;3.70;99.90;;;;;;5040567;28;20035;-65
2021/01/06 02:30:53;;;;;;;6.10;3.30;;;3.70;99.90;;;;;;5040673;28;20156;-64
2021/01/06 02:33:19;;;;;;;7.07;3.50;;;3.80;99.90;;;;;;5041682;28;20044;-64
2021/01/06 02:35:44;;;;;;;9.73;3.53;;;3.70;99.90;;;;;;5041298;28;20025;-66
2021/01/06 02:38:10;;;;;;;7.68;3.75;;;3.80;99.90;;;;;;5043129;28;20037;-66
2021/01/06 02:40:36;;;;;;;7.40;3.47;;;3.70;99.90;;;;;;5040068;28;20029;-66
2021/01/06 02:43:02;;;;;;;11.02;4.22;;;3.70;99.90;;;;;;5043794;28;20037;-65
2021/01/06 02:45:28;;;;;;;6.72;3.65;;;3.70;99.90;;;;;;5039751;28;20026;-65
2021/01/06 02:47:53;;;;;;;22.92;4.35;;;3.70;99.90;;;;;;5042895;28;20041;-66
2021/01/06 02:50:25;;;;;;;7.88;3.97;;;3.70;99.90;;;;;;5041463;28;20032;-64
2021/01/06 02:53:01;;;;;;;7.43;3.65;;;3.70;99.90;;;;;;5042317;28;20124;-66
2021/01/06 02:55:29;;;;;;;8.10;3.67;;;3.70;99.90;;;;;;5039872;28;20030;-67
2021/01/06 02:57:56;;;;;;;9.18;3.58;;;3.70;99.90;;;;;;5039930;28;20038;-64
2021/01/06 03:00:25;;;;;;;12.52;4.35;;;3.70;99.90;;;;;;5042671;28;20034;-66
2021/01/06 03:02:52;;;;;;;4.97;2.83;;;3.70;99.90;;;;;;5039136;28;20037;-65
2021/01/06 03:05:32;;;;;;;7.53;3.90;;;3.70;99.90;;;;;;5041852;28;20050;-67
2021/01/06 03:07:57;;;;;;;8.40;4.27;;;3.70;99.90;;;;;;5039582;28;20041;-64
2021/01/06 03:10:23;;;;;;;6.63;3.33;;;3.60;99.90;;;;;;5042634;28;20041;-65
2021/01/06 03:12:52;;;;;;;7.47;3.53;;;3.60;99.90;;;;;;5040115;28;20029;-65
2021/01/06 03:15:21;;;;;;;6.15;3.38;;;3.60;99.90;;;;;;5041944;28;20048;-65
2021/01/06 03:17:47;;;;;;;6.93;2.92;;;3.50;99.90;;;;;;5040541;28;20040;-64
2021/01/06 03:20:21;;;;;;;7.45;3.53;;;3.60;99.90;;;;;;5041123;28;20036;-64
2021/01/06 03:22:55;;;;;;;8.43;4.50;;;3.60;99.90;;;;;;5050910;22;20053;-74
2021/01/06 03:25:20;;;;;;;6.80;2.80;;;3.60;99.90;;;;;;5036567;28;20124;-74
2021/01/06 03:27:50;;;;;;;5.57;3.05;;;3.60;99.90;;;;;;5036132;28;20108;-73
2021/01/06 03:30:22;;;;;;;6.57;3.60;;;3.50;99.90;;;;;;5037073;28;20057;-74
2021/01/06 03:33:02;;;;;;;7.63;3.65;;;3.50;99.90;;;;;;5036627;28;20041;-74
2021/01/06 03:35:33;;;;;;;;;;;3.50;99.90;;;;;;5032342;28;20072;-73
2021/01/06 03:38:04;;;;;;;5.25;3.08;;;3.50;99.90;;;;;;5027850;28;19912;-73
2021/01/06 03:40:35;;;;;;;9.68;3.08;;;3.50;99.90;;;;;;5031815;28;20029;-73
2021/01/06 03:43:03;;;;;;;7.75;3.38;;;3.50;99.90;;;;;;5029281;28;20279;-74
2021/01/06 03:45:30;;;;;;;7.88;3.17;;;3.50;99.90;;;;;;5036448;28;20033;-73
2021/01/06 03:48:02;;;;;;;6.75;2.97;;;3.50;99.90;;;;;;5038271;28;20033;-74
2021/01/06 03:50:36;;;;;;;7.28;3.40;;;3.40;99.90;;;;;;5024654;28;20487;-74
2021/01/06 03:53:23;;;;;;;6.90;3.33;;;3.40;99.90;;;;;;5033369;28;20380;-74
2021/01/06 03:55:53;;;;;;;9.75;4.10;;;3.40;99.90;;;;;;5034076;28;20033;-74
2021/01/06 03:58:46;;;;;;;15.63;3.95;;;3.30;99.90;;;;;;5035908;28;20023;-74
2021/01/06 04:01:32;;;;;;;8.85;3.70;;;3.40;99.90;;;;;;5031802;28;20084;-74
2021/01/06 04:04:23;;;;;;;10.82;3.53;;;3.30;99.90;;;;;;5035183;28;20064;-74
2021/01/06 04:06:52;;;;;;;8.60;3.28;;;3.40;99.90;;;;;;5032277;28;20048;-74
2021/01/06 04:09:32;;;;;;;6.45;3.10;;;3.40;99.90;;;;;;5038059;28;20029;-74
2021/01/06 04:12:04;;;;;;;6.70;3.22;;;3.40;99.90;;;;;;5040124;28;20687;-74
2021/01/06 04:14:30;;;;;;;10.90;3.65;;;3.40;99.90;;;;;;5026411;28;20562;-73
2021/01/06 04:16:55;;;;;;;6.38;3.33;;;3.30;99.90;;;;;;5034470;28;20171;-74
2021/01/06 04:19:21;;;;;;;6.95;3.08;;;3.40;99.90;;;;;;5038289;28;20154;-73
2021/01/06 04:21:47;;;;;;;10.27;4.13;;;3.30;99.90;;;;;;5028818;28;20053;-73
2021/01/06 04:24:13;;;;;;;7.50;3.30;;;3.30;99.90;;;;;;5033808;28;20045;-73
2021/01/06 04:26:40;;;;;;;7.13;3.38;;;3.30;99.90;;;;;;5032035;28;20037;-73
2021/01/06 04:29:06;;;;;;;14.43;3.80;;;3.40;99.90;;;;;;5034252;28;20132;-73
2021/01/06 04:31:31;;;;;;;7.80;3.08;;;3.30;99.90;;;;;;5030024;28;20172;-73
2021/01/06 04:33:57;;;;;;;7.57;3.67;;;3.40;99.90;;;;;;5032527;28;20041;-72
2021/01/06 04:36:31;;;;;;;7.78;3.78;;;3.40;99.90;;;;;;5037537;28;20036;-73
2021/01/06 04:39:00;;;;;;;7.85;3.10;;;3.40;99.90;;;;;;5034599;28;20025;-73
2021/01/06 04:41:31;;;;;;;6.63;3.13;;;3.30;99.90;;;;;;5029758;28;20057;-73
2021/01/06 04:44:34;;;;;;;7.00;3.40;;;3.40;99.90;;;;;;5028376;28;20068;-76
2021/01/06 04:47:15;;;;;;;9.82;3.50;;;3.40;99.90;;;;;;5029956;28;20456;-74
2021/01/06 04:50:08;;;;;;;6.00;2.80;;;3.30;99.90;;;;;;5036447;28;20087;-74
2021/01/06 04:52:48;;;;;;;12.07;3.97;;;3.30;99.90;;;;;;5027795;28;20049;-73
2021/01/06 04:55:39;;;;;;;8.55;3.92;;;3.30;99.90;;;;;;5035671;28;20108;-74
2021/01/06 04:58:19;;;;;;;7.20;3.78;;;3.30;99.90;;;;;;5032000;28;20036;-74
2021/01/06 05:01:15;;;;;;;9.68;3.85;;;3.30;99.90;;;;;;5036197;28;20040;-74
2021/01/06 05:04:09;;;;;;;8.45;3.92;;;3.30;99.90;;;;;;5033519;28;20115;-73
2021/01/06 05:07:01;;;;;;;7.65;3.70;;;3.30;99.90;;;;;;5029832;28;20053;-73
2021/01/06 05:09:37;;;;;;;12.10;4.22;;;3.20;99.90;;;;;;5020224;28;20033;-75
2021/01/06 05:12:17;;;;;;;8.48;4.07;;;3.20;99.90;;;;;;5034710;28;20053;-74
2021/01/06 05:14:54;;;;;;;7.80;3.95;;;3.30;99.90;;;;;;5036868;28;20025;-73
2021/01/06 05:17:19;;;;;;;8.65;3.80;;;3.30;99.90;;;;;;5049019;28;20092;-75
2021/01/06 05:19:50;;;;;;;6.60;3.35;;;3.30;99.90;;;;;;5032933;28;20487;-73
2021/01/06 05:22:16;;;;;;;6.65;3.47;;;3.30;99.90;;;;;;5036925;28;20046;-73
2021/01/06 05:24:45;;;;;;;5.57;3.20;;;3.30;99.90;;;;;;5031040;28;20059;-74
2021/01/06 05:27:14;;;;;;;8.60;3.58;;;3.30;99.90;;;;;;5035422;28;20423;-74
2021/01/06 05:30:00;;;;;;;5.72;2.80;;;3.30;99.90;;;;;;5032399;28;20418;-74
2021/01/06 05:32:35;;;;;;;7.20;3.42;;;3.20;99.90;;;;;;5030924;28;20487;-74
2021/01/06 05:35:32;;;;;;;8.70;3.58;;;3.30;99.90;;;;;;5035526;28;20445;-74
2021/01/06 05:38:00;;;;;;;7.78;3.60;;;3.30;99.90;;;;;;5024728;28;20033;-73
2021/01/06 05:40:27;;;;;;;8.13;3.30;;;3.30;99.90;;;;;;5033959;28;20533;-73
2021/01/06 05:42:55;;;;;;;6.38;3.30;;;3.30;99.90;;;;;;5037352;28;20044;-74
2021/01/06 05:45:47;;;;;;;7.68;3.40;;;3.30;99.90;;;;;;5032635;28;20453;-75
2021/01/06 05:48:30;;;;;;;6.35;2.95;;;3.20;99.90;;;;;;5027074;28;20037;-74
2021/01/06 05:51:17;;;;;;;7.88;3.58;;;3.30;99.90;;;;;;5032777;28;20128;-74
2021/01/06 05:53:57;;;;;;;9.13;4.63;;;3.20;99.90;;;;;;5028010;28;20488;-74
2021/01/06 05:56:29;;;;;;;8.63;3.47;;;3.20;99.90;;;;;;5027685;28;20423;-73
2021/01/06 05:59:10;;;;;;;6.70;2.95;;;3.20;99.90;;;;;;5032986;28;20038;-74
2021/01/06 06:01:54;;;;;;;8.63;3.33;;;3.20;99.90;;;;;;5037141;28;20041;-75
2021/01/06 06:04:44;;;;;;;11.55;3.25;;;3.30;99.90;;;;;;5029132;28;20051;-76
2021/01/06 06:07:13;;;;;;;5.63;2.92;;;3.20;99.90;;;;;;5022034;28;20032;-74
2021/01/06 06:10:09;;;;;;;7.15;3.13;;;3.20;99.90;;;;;;5027635;28;21113;-75
2021/01/06 06:13:13;;;;;;;7.78;3.53;;;3.20;99.90;;;;;;5029208;28;20053;-74
2021/01/06 06:15:54;;;;;;;6.15;2.55;;;3.20;99.90;;;;;;4982476;28;20034;-75
2021/01/06 06:19:03;;;;;;;6.50;3.13;;;3.20;99.90;;;;;;5024621;28;20544;-74
2021/01/06 06:21:36;;;;;;;8.25;3.63;;;3.20;99.90;;;;;;5045636;28;20056;-75
2021/01/06 06:24:34;;;;;;;7.70;3.00;;;3.10;99.90;;;;;;5034444;28;20041;-73
2021/01/06 06:27:02;;;;;;;8.88;3.88;;;3.10;99.90;;;;;;5027851;28;20076;-74
2021/01/06 06:29:49;;;;;;;14.32;4.60;;;3.10;99.90;;;;;;5031877;28;20044;-73
2021/01/06 06:32:15;;;;;;;6.07;3.22;;;3.20;99.90;;;;;;5034614;28;20060;-73
2021/01/06 06:34:44;;;;;;;7.45;3.55;;;3.20;99.90;;;;;;5032113;28;20712;-75
2021/01/06 06:37:13;;;;;;;5.40;3.10;;;3.20;99.90;;;;;;5033763;28;20041;-75
2021/01/06 06:39:47;;;;;;;5.32;3.03;;;3.30;99.90;;;;;;5035933;28;20371;-75
2021/01/06 06:42:34;;;;;;;5.80;2.63;;;3.20;99.90;;;;;;5036448;28;20448;-75
2021/01/06 06:45:19;;;;;;;9.60;3.50;;;3.20;99.90;;;;;;5031077;28;20095;-75
2021/01/06 06:48:07;;;;;;;6.68;2.83;;;3.20;99.90;;;;;;5036189;28;20022;-74
2021/01/06 06:51:20;;;;;;;5.53;2.88;;;3.20;99.90;;;;;;5035444;28;20052;-74
2021/01/06 06:54:01;;;;;;;6.40;3.40;;;3.20;99.90;;;;;;5026985;28;20132;-74
2021/01/06 06:56:52;;;;;;;6.05;2.97;;;3.20;99.90;;;;;;5027209;28;20039;-74
2021/01/06 06:59:44;;;;;;;7.30;3.17;;;3.10;99.90;;;;;;5032102;28;20124;-74
2021/01/06 07:02:10;;;;;;;5.72;3.00;;;3.10;99.90;;;;;;5016011;28;20059;-73
2021/01/06 07:04:43;;;;;;;11.32;3.33;;;3.10;99.90;;;;;;5039031;28;20861;-74
2021/01/06 07:07:33;;;;;;;6.25;3.00;;;3.10;99.90;;;;;;5036033;28;20077;-75
2021/01/06 07:09:59;;;;;;;5.70;2.80;;;3.10;99.90;;;;;;5034278;28;20026;-74
2021/01/06 07:12:25;;;;;;;5.85;2.78;;;3.10;99.90;;;;;;5036699;28;20112;-74
2021/01/06 07:14:57;;;;;;;5.28;2.72;;;3.10;99.90;;;;;;5033582;28;20034;-74
2021/01/06 07:17:38;;;;;;;7.07;3.58;;;3.00;99.90;;;;;;5029492;28;20033;-74
2021/01/06 07:20:07;;;;;;;10.70;4.15;;;3.00;99.90;;;;;;5038081;28;20045;-74
2021/01/06 07:22:40;;;;;;;7.75;3.05;;;3.00;99.90;;;;;;5032020;28;20045;-74
2021/01/06 07:25:17;;;;;;;7.35;3.38;;;3.10;99.90;;;;;;5034041;28;20045;-75
2021/01/06 07:27:46;;;;;;;6.72;3.25;;;3.00;99.90;;;;;;5033588;28;20045;-74
2021/01/06 07:30:47;;;;;;;7.75;3.55;;;3.00;99.90;;;;;;5033325;28;20029;-74
2021/01/06 07:33:30;;;;;;;7.50;3.35;;;3.00;99.90;;;;;;5036826;28;20037;-74
2021/01/06 07:36:06;;;;;;;7.50;3.20;;;3.00;99.90;;;;;;5033133;28;20029;-74
2021/01/06 07:38:33;;;;;;;13.10;3.80;;;3.00;99.90;;;;;;5036993;28;20138;-74
2021/01/06 07:40:58;;;;;;;7.20;3.35;;;3.00;99.90;;;;;;5037908;28;20040;-74
2021/01/06 07:43:28;;;;;;;7.15;2.83;;;2.90;99.90;;;;;;5031398;28;20037;-73
2021/01/06 07:45:59;;;;;;;12.00;4.30;;;3.00;99.90;;;;;;5040301;28;20379;-72
2021/01/06 07:48:37;;;;;;;5.82;3.03;;;3.00;99.90;;;;;;5025816;28;20100;-75
2021/01/06 07:51:02;;;;;;;7.20;2.80;;;3.00;99.90;;;;;;5032815;28;20442;-74
2021/01/06 07:53:38;;;;;;;6.68;3.75;;;3.10;99.90;;;;;;5029074;28;20033;-73
2021/01/06 07:56:16;;;;;;;5.72;2.90;;;3.00;99.90;;;;;;5036045;28;20033;-73
2021/01/06 07:58:44;;;;;;;6.35;2.50;;;3.10;99.90;;;;;;5030721;28;20124;-72
2021/01/06 08:01:33;;;;;;;6.03;2.95;;;3.20;99.90;;;;;;5031923;28;20960;-73
2021/01/06 08:04:37;;;;;;;6.40;2.83;;;3.10;99.90;;;;;;5030461;28;20449;-73
2021/01/06 08:07:07;;;;;;;8.65;3.60;;;3.10;99.90;;;;;;5021750;28;20037;-74
2021/01/06 08:09:41;;;;;;;8.95;3.78;;;3.10;99.90;;;;;;5032885;28;20052;-73
2021/01/06 08:12:25;;;;;;;12.57;4.20;;;3.10;99.90;;;;;;5031571;28;20037;-72
2021/01/06 08:15:22;;;;;;;11.77;3.45;;;3.10;99.90;;;;;;5030821;28;20037;-73
2021/01/06 08:18:08;;;;;;;7.65;3.38;;;3.10;99.90;;;;;;5033277;28;20057;-74
2021/01/06 08:20:45;;;;;;;6.25;2.90;;;3.10;99.90;;;;;;5034819;28;20078;-74
2021/01/06 08:23:14;;;;;;;6.35;3.08;;;3.10;99.90;;;;;;5036629;28;20050;-73
2021/01/06 08:25:41;;;;;;;6.53;3.28;;;3.10;99.90;;;;;;5033185;28;20041;-73
2021/01/06 08:28:23;;;;;;;6.70;3.40;;;3.20;99.90;;;;;;5032087;28;20041;-72
2021/01/06 08:30:49;;;;;;;6.97;3.35;;;3.20;99.90;;;;;;5029407;28;20037;-73
2021/01/06 08:33:15;;;;;;;10.15;3.28;;;3.20;99.90;;;;;;5036004;28;20046;-74
2021/01/06 08:35:46;;;;;;;7.10;3.33;;;3.20;99.90;;;;;;5028192;28;20045;-75
2021/01/06 08:38:32;;;;;;;5.97;2.85;;;3.20;99.90;;;;;;5026134;28;20108;-74
2021/01/06 08:41:19;;;;;;;5.60;2.92;;;3.30;99.90;;;;;;5030533;28;20036;-74
2021/01/06 08:43:45;;;;;;;6.43;3.03;;;3.30;99.90;;;;;;5030284;28;20124;-74
2021/01/06 08:46:34;;;;;;;5.85;3.22;;;3.30;99.90;;;;;;5033332;28;20928;-75
2021/01/06 08:49:08;;;;;;;10.02;3.58;;;3.30;99.90;;;;;;5021969;28;20072;-75
2021/01/06 08:51:35;;;;;;;9.20;4.00;;;3.40;99.90;;;;;;5033626;28;20053;-75
2021/01/06 08:54:15;;;;;;;7.25;3.40;;;3.40;99.90;;;;;;5036890;28;20048;-75
2021/01/06 08:56:40;;;;;;;9.57;2.88;;;3.40;99.90;;;;;;5027263;28;20122;-75
2021/01/06 08:59:24;;;;;;;9.50;3.97;;;3.40;99.90;;;;;;5033022;28;20057;-73
2021/01/06 09:01:52;;;;;;;9.60;3.65;;;3.40;99.90;;;;;;5030461;28;20131;-74
2021/01/06 09:04:22;;;;;;;9.02;3.88;;;3.50;99.90;;;;;;5033356;28;20040;-73
2021/01/06 09:07:04;;;;;;;8.77;3.43;;;3.50;99.90;;;;;;5032097;28;20483;-74
2021/01/06 09:09:43;;;;;;;7.65;3.33;;;3.60;99.90;;;;;;5031939;28;20271;-74
2021/01/06 09:12:26;;;;;;;10.63;4.13;;;3.60;99.90;;;;;;5035845;28;20071;-74
2021/01/06 09:14:53;;;;;;;7.18;3.53;;;3.60;99.90;;;;;;5030453;28;20048;-73
2021/01/06 09:17:47;;;;;;;7.07;3.38;;;3.60;99.90;;;;;;5034578;28;20124;-74
2021/01/06 09:20:19;;;;;;;7.68;4.20;;;3.60;99.90;;;;;;5026839;28;20037;-74
2021/01/06 09:22:45;;;;;;;6.45;3.15;;;3.70;99.90;;;;;;5028343;28;20045;-73
2021/01/06 09:25:15;;;;;;;9.07;3.25;;;3.70;99.90;;;;;;5023733;28;20029;-74
2021/01/06 09:27:44;;;;;;;5.60;2.17;;;3.80;99.90;;;;;;5023554;28;20029;-74
2021/01/06 09:30:18;;;;;;;5.72;3.05;;;3.70;99.90;;;;;;5022072;28;20052;-74
2021/01/06 09:32:46;;;;;;;6.68;3.22;;;3.70;99.90;;;;;;5032086;28;20423;-74
2021/01/06 09:35:16;;;;;;;7.72;3.33;;;3.70;99.90;;;;;;5029124;28;20029;-73
2021/01/06 09:37:51;;;;;;;8.77;3.10;;;3.80;99.90;;;;;;5035809;28;20087;-73
2021/01/06 09:40:19;;;;;;;7.38;3.17;;;3.80;99.90;;;;;;5020381;28;20068;-73
2021/01/06 09:42:49;;;;;;;7.03;3.63;;;3.80;99.90;;;;;;5022484;28;20037;-73
2021/01/06 09:45:21;;;;;;;7.55;3.60;;;3.80;99.90;;;;;;5029477;28;20091;-74
2021/01/06 09:47:48;;;;;;;10.30;3.40;;;3.90;99.90;;;;;;5036875;28;20124;-74
2021/01/06 09:50:30;;;;;;;8.50;3.47;;;3.90;99.90;;;;;;5037026;28;20041;-73
2021/01/06 09:52:59;;;;;;;6.38;3.13;;;3.90;99.90;;;;;;5032563;28;20041;-74
2021/01/06 09:55:26;;;;;;;8.48;2.70;;;3.90;99.90;;;;;;5040612;28;20079;-74
2021/01/06 09:58:23;;;;;;;10.48;3.53;;;3.90;99.90;;;;;;5037358;28;20041;-74
2021/01/06 10:01:08;;;;;;;7.70;3.13;;;4.00;99.90;;;;;;5026154;28;20108;-73
2021/01/06 10:03:37;;;;;;;9.73;4.43;;;4.00;99.90;;;;;;5032566;28;20612;-73
2021/01/06 10:06:11;;;;;;;6.65;3.05;;;4.00;99.90;;;;;;5029815;28;20040;-73
2021/01/06 10:08:43;;;;;;;6.53;3.10;;;4.00;99.90;;;;;;5030421;28;20041;-73
2021/01/06 10:11:56;;;;;;;6.25;3.10;;;4.00;99.90;;;;;;5019496;28;20449;-74
2021/01/06 10:14:45;;;;;;;8.93;3.67;;;4.00;99.90;;;;;;5005595;28;20055;-74
2021/01/06 10:17:20;;;;;;;7.32;3.03;;;4.10;99.90;;;;;;5037679;28;20064;-74
2021/01/06 10:19:59;;;;;;;7.78;3.40;;;4.00;99.90;;;;;;5019571;28;20652;-75
2021/01/06 10:22:54;;;;;;;5.32;2.88;;;4.00;99.90;;;;;;5021722;28;20037;-74
2021/01/06 10:25:46;;;;;;;7.93;3.20;;;4.00;99.90;;;;;;5017303;28;20071;-74
2021/01/06 10:28:40;;;;;;;6.13;2.97;;;4.10;99.90;;;;;;5030217;28;20072;-74
2021/01/06 10:31:08;;;;;;;7.40;2.90;;;4.00;99.90;;;;;;5027193;28;20029;-74
2021/01/06 10:33:35;;;;;;;8.23;3.42;;;4.00;99.90;;;;;;5032119;28;20498;-74
2021/01/06 10:36:15;;;;;;;7.88;2.60;;;4.00;99.90;;;;;;5028200;28;20048;-76
2021/01/06 10:38:43;;;;;;;7.68;3.05;;;4.00;99.90;;;;;;5032250;28;20153;-74
2021/01/06 10:41:20;;;;;;;8.95;3.20;;;4.00;99.90;;;;;;5032163;28;20033;-74
2021/01/06 10:43:54;;;;;;;9.48;2.97;;;4.00;99.90;;;;;;5033101;28;20048;-74
2021/01/06 10:46:43;;;;;;;7.10;2.90;;;4.00;99.90;;;;;;5026078;28;20065;-74
2021/01/06 10:49:19;;;;;;;4.88;2.22;;;4.00;99.90;;;;;;5026956;28;20041;-74
2021/01/06 10:51:57;;;;;;;6.70;2.08;;;4.10;99.90;;;;;;5035349;28;20045;-74
2021/01/06 10:54:49;;;;;;;7.68;2.63;;;4.10;99.90;;;;;;5049056;28;20498;-74
2021/01/06 10:57:14;;;;;;;5.60;2.45;;;4.10;99.90;;;;;;5017206;28;20522;-75
2021/01/06 10:59:40;;;;;;;5.80;2.75;;;4.10;99.90;;;;;;5027127;28;20037;-75
2021/01/06 11:02:28;;;;;;;9.52;3.08;;;4.10;99.90;;;;;;5029898;28;20061;-74
2021/01/06 11:05:08;;;;;;;5.45;2.55;;;4.20;99.90;;;;;;5038561;28;20080;-74
2021/01/06 11:08:03;;;;;;;6.07;3.20;;;4.20;99.90;;;;;;5029902;28;20057;-75
2021/01/06 11:10:49;;;;;;;7.18;2.40;;;4.20;99.90;;;;;;5031262;28;20711;-75
2021/01/06 11:13:23;;;;;;;8.18;2.50;;;4.20;99.90;;;;;;5031628;28;20878;-74
2021/01/06 11:15:54;;;;;;;7.65;2.58;;;4.20;99.90;;;;;;5038813;28;20625;-74
2021/01/06 11:18:45;;;;;;;8.05;2.95;;;4.20;99.90;;;;;;5036103;28;20073;-75
2021/01/06 11:21:16;;;;;;;5.55;2.45;;;4.20;99.90;;;;;;5032076;28;20061;-75
2021/01/06 11:23:46;;;;;;;6.65;2.88;;;4.30;99.90;;;;;;5031953;28;20041;-75
2021/01/06 11:26:20;;;;;;;5.68;1.73;;;4.30;99.90;;;;;;5027684;28;20045;-76
2021/01/06 11:29:10;;;;;;;8.63;2.70;;;4.30;99.90;;;;;;5027761;28;20045;-75
2021/01/06 11:31:38;;;;;;;5.57;2.17;;;4.30;99.90;;;;;;5019546;28;20113;-72
2021/01/06 11:34:10;;;;;;;5.30;2.83;;;4.30;99.90;;;;;;5037525;28;20605;-73
2021/01/06 11:36:46;;;;;;;7.28;2.13;;;4.30;99.90;;;;;;5035655;28;20040;-75
2021/01/06 11:39:38;;;;;;;4.97;2.45;;;4.30;99.90;;;;;;5032632;28;20966;-73
2021/01/06 11:42:16;;;;;;;7.18;2.30;;;4.40;99.90;;;;;;5040339;28;20052;-73
2021/01/06 11:45:07;;;;;;;10.60;2.65;;;4.50;99.90;;;;;;5031569;28;20029;-73
2021/01/06 11:47:46;;;;;;;7.15;2.42;;;4.50;99.90;;;;;;5026842;28;20045;-73
2021/01/06 11:50:24;;;;;;;6.78;2.05;;;4.60;99.90;;;;;;5020190;28;20116;-73
2021/01/06 11:52:51;;;;;;;6.70;2.75;;;4.70;99.90;;;;;;5035414;28;20036;-74
2021/01/06 11:55:33;;;;;;;5.18;2.00;;;4.70;99.90;;;;;;5035033;28;20099;-73
2021/01/06 11:58:26;;;;;;;5.05;2.08;;;4.60;99.90;;;;;;5032502;28;20087;-74
2021/01/06 12:01:19;;;;;;;4.88;1.60;;;4.60;99.90;;;;;;5033642;28;20025;-75
2021/01/06 12:03:59;;;;;;;4.45;1.70;;;4.60;99.90;;;;;;5032170;28;20098;-73
2021/01/06 12:06:33;;;;;;;5.43;2.03;;;4.60;99.90;;;;;;5037407;28;20633;-74
2021/01/06 12:09:10;;;;;;;7.30;1.70;;;4.50;99.90;;;;;;5030273;28;20052;-74
2021/01/06 12:11:53;;;;;;;3.20;1.63;;;4.60;99.90;;;;;;5030590;28;20032;-73
2021/01/06 12:14:27;;;;;;;5.65;1.67;;;4.50;99.90;;;;;;5032587;28;20065;-76
2021/01/06 12:17:45;;;;;;;6.05;2.08;;;4.50;99.90;;;;;;5033560;28;20037;-75
2021/01/06 12:20:22;;;;;;;4.50;1.95;;;4.40;99.90;;;;;;5004854;28;20041;-75
2021/01/06 12:23:13;;;;;;;4.90;1.67;;;4.50;99.90;;;;;;5033769;28;20040;-74
2021/01/06 12:25:57;;;;;;;4.43;1.52;;;4.50;99.90;;;;;;5025472;28;20037;-74
2021/01/06 12:28:40;;;;;;;4.97;1.83;;;4.40;99.90;;;;;;5017988;28;20037;-73
2021/01/06 12:31:16;;;;;;;4.20;1.63;;;4.40;99.90;;;;;;5030131;28;20120;-73
2021/01/06 12:34:00;;;;;;;9.13;1.67;;;4.50;99.90;;;;;;5033108;28;20037;-74
2021/01/06 12:36:30;;;;;;;5.45;1.75;;;4.40;99.90;;;;;;5028066;28;20136;-74
2021/01/06 12:39:30;;;;;;;3.95;1.83;;;4.30;99.90;;;;;;5029188;28;20563;-74
2021/01/06 12:42:14;;;;;;;7.97;2.37;;;4.40;99.90;;;;;;5032117;28;20059;-74
2021/01/06 12:44:43;;;;;;;5.68;2.15;;;4.30;99.90;;;;;;5032042;28;20033;-74
2021/01/06 12:47:21;;;;;;;6.28;2.80;;;4.40;99.90;;;;;;5028479;28;20041;-74
2021/01/06 12:50:04;;;;;;;4.15;1.80;;;4.40;99.90;;;;;;5020004;28;20053;-74
2021/01/06 12:52:40;;;;;;;6.43;1.70;;;4.40;99.90;;;;;;5032427;28;20830;-73
2021/01/06 12:55:25;;;;;;;6.25;1.85;;;4.40;99.90;;;;;;5034261;28;20029;-74
2021/01/06 12:57:55;;;;;;;5.13;2.25;;;4.40;99.90;;;;;;5048746;28;20059;-74
2021/01/06 13:00:32;;;;;;;9.88;3.60;;;4.50;99.90;;;;;;5035846;28;20040;-74
2021/01/06 13:03:37;;;;;;;4.25;1.90;;;4.50;99.90;;;;;;5027899;28;20044;-76
2021/01/06 13:06:24;;;;;;;4.05;1.88;;;4.50;99.90;;;;;;5034983;28;20040;-75
2021/01/06 13:08:52;;;;;;;14.00;1.88;;;4.60;99.90;;;;;;5029780;28;20049;-73
2021/01/06 13:11:44;;;;;;;6.68;1.90;;;4.60;99.90;;;;;;5036888;28;20037;-73
2021/01/06 13:14:16;;;;;;;7.07;1.85;;;4.60;99.90;;;;;;5031760;28;20482;-74
2021/01/06 13:17:02;;;;;;;5.72;1.67;;;4.60;99.90;;;;;;5034738;28;20068;-73
2021/01/06 13:19:41;;;;;;;7.60;1.55;;;4.60;99.90;;;;;;5031401;28;20716;-74
2021/01/06 13:22:25;;;;;;;9.25;1.67;;;4.60;99.90;;;;;;5033608;28;20095;-74
2021/01/06 13:25:29;;;;;;;4.85;2.20;;;4.50;99.90;;;;;;5050823;28;20395;-74
2021/01/06 13:28:10;;;;;;;5.97;1.60;;;4.50;99.90;;;;;;5034951;28;20091;-74
2021/01/06 13:30:35;;;;;;;;;;;4.50;99.90;;;;;;5032312;28;20033;-74
2021/01/06 13:33:27;;;;;;;6.05;1.75;;;4.50;99.90;;;;;;5033640;28;19916;-73
2021/01/06 13:35:58;;;;;;;3.92;1.83;;;4.60;99.90;;;;;;5029230;28;20057;-73
2021/01/06 13:38:33;;;;;;;4.43;1.48;;;4.50;99.90;;;;;;5030390;28;20490;-72
2021/01/06 13:41:21;;;;;;;7.95;1.80;;;4.50;99.90;;;;;;5029860;28;20120;-73